createdAt,value
2023-01-12T00:01:43.863Z,0.90
2023-01-12T00:04:15.169Z,0.90
2023-01-12T00:06:42.296Z,0.87
2023-01-12T00:09:10.099Z,1.17
2023-01-12T00:11:38.171Z,0.90
2023-01-12T00:14:06.778Z,1.20
2023-01-12T00:16:39.747Z,1.17
2023-01-12T00:19:22.744Z,1.40
2023-01-12T00:22:12.491Z,1.57
2023-01-12T00:24:42.117Z,1.30
2023-01-12T00:27:12.159Z,1.50
2023-01-12T00:29:39.354Z,1.50
2023-01-12T00:32:14.793Z,1.60
2023-01-12T00:34:41.672Z,1.20
2023-01-12T00:37:09.411Z,1.43
2023-01-12T00:39:40.406Z,1.80
2023-01-12T00:42:26.348Z,1.10
2023-01-12T00:45:11.874Z,1.53
2023-01-12T00:47:38.697Z,1.60
2023-01-12T00:50:05.923Z,1.60
2023-01-12T00:52:32.713Z,1.30
2023-01-12T00:55:00.000Z,1.60
2023-01-12T00:57:28.833Z,1.57
2023-01-12T00:59:58.477Z,1.57
2023-01-12T01:02:26.192Z,1.63
2023-01-12T01:04:52.996Z,1.43
2023-01-12T01:07:21.749Z,1.47
2023-01-12T01:09:49.723Z,1.60
2023-01-12T01:12:16.721Z,1.30
2023-01-12T01:14:43.806Z,1.77
2023-01-12T01:17:10.563Z,1.33
2023-01-12T01:19:37.521Z,1.40
2023-01-12T01:22:04.842Z,1.10
2023-01-12T01:24:31.611Z,1.10
2023-01-12T01:26:58.679Z,1.33
2023-01-12T01:29:25.367Z,1.20
2023-01-12T01:31:55.168Z,1.60
2023-01-12T01:34:24.032Z,1.00
2023-01-12T01:36:51.104Z,1.20
2023-01-12T01:39:18.481Z,1.00
2023-01-12T01:41:45.447Z,1.00
2023-01-12T01:44:30.345Z,0.93
2023-01-12T01:47:11.331Z,1.10
2023-01-12T01:49:43.788Z,1.23
2023-01-12T01:52:31.446Z,1.00
2023-01-12T01:55:00.869Z,0.80
2023-01-12T01:57:33.824Z,0.90
2023-01-12T02:00:01.835Z,0.97
2023-01-12T02:02:29.206Z,0.80
2023-01-12T02:04:57.407Z,0.90
2023-01-12T02:07:25.270Z,1.03
2023-01-12T02:09:52.042Z,1.17
2023-01-12T02:12:40.491Z,0.97
2023-01-12T02:15:26.388Z,1.10
2023-01-12T02:18:29.020Z,0.67
2023-01-12T02:21:16.799Z,0.70
2023-01-12T02:23:46.281Z,0.90
2023-01-12T02:26:19.044Z,0.63
2023-01-12T02:28:49.512Z,0.97
2023-01-12T02:31:28.318Z,0.63
2023-01-12T02:34:01.122Z,0.80
2023-01-12T02:37:05.370Z,0.80
2023-01-12T02:39:50.480Z,0.87
2023-01-12T02:42:39.073Z,0.90
2023-01-12T02:45:25.042Z,1.10
2023-01-12T02:48:24.180Z,1.20
2023-01-12T02:50:57.185Z,1.53
2023-01-12T02:53:43.510Z,0.73
2023-01-12T02:56:13.821Z,1.30
2023-01-12T02:58:46.098Z,1.37
2023-01-12T03:01:16.687Z,0.83
2023-01-12T03:03:43.847Z,0.83
2023-01-12T03:06:17.331Z,0.80
2023-01-12T03:08:47.600Z,0.87
2023-01-12T03:11:16.793Z,0.70
2023-01-12T03:13:54.254Z,0.90
2023-01-12T03:16:26.979Z,0.70
2023-01-12T03:19:02.378Z,0.90
2023-01-12T03:21:47.635Z,0.67
2023-01-12T03:24:23.351Z,0.57
2023-01-12T03:26:56.133Z,1.13
2023-01-12T03:29:29.936Z,0.70
2023-01-12T03:31:57.182Z,0.87
2023-01-12T03:34:24.051Z,0.70
2023-01-12T03:37:11.409Z,1.40
2023-01-12T03:39:54.742Z,0.70
2023-01-12T03:42:26.359Z,0.93
2023-01-12T03:45:35.990Z,0.90
2023-01-12T03:48:09.658Z,1.00
2023-01-12T03:50:42.856Z,0.70
2023-01-12T03:53:12.385Z,0.90
2023-01-12T03:55:40.305Z,0.80
2023-01-12T03:58:07.403Z,1.00
2023-01-12T04:00:34.876Z,0.80
2023-01-12T04:03:10.419Z,0.60
2023-01-12T04:05:37.869Z,1.00
2023-01-12T04:08:04.928Z,0.97
2023-01-12T04:10:31.766Z,0.73
2023-01-12T04:12:58.534Z,0.90
2023-01-12T04:15:25.417Z,0.80
2023-01-12T04:17:52.506Z,1.10
2023-01-12T04:20:20.224Z,0.70
2023-01-12T04:22:47.433Z,0.80
2023-01-12T04:25:17.108Z,1.20
2023-01-12T04:28:01.143Z,1.33
2023-01-12T04:30:29.658Z,0.90
2023-01-12T04:32:57.473Z,0.90
2023-01-12T04:35:24.895Z,0.90
2023-01-12T04:37:52.808Z,0.87
2023-01-12T04:40:20.262Z,0.80
2023-01-12T04:43:01.837Z,0.80
2023-01-12T04:45:29.516Z,0.80
2023-01-12T04:47:56.350Z,1.03
2023-01-12T04:50:23.165Z,0.90
2023-01-12T04:52:50.387Z,0.90
2023-01-12T04:55:17.217Z,1.13
2023-01-12T04:57:43.954Z,1.00
2023-01-12T05:00:11.846Z,0.80
2023-01-12T05:02:38.594Z,0.80
2023-01-12T05:05:06.937Z,0.90
2023-01-12T05:07:33.629Z,1.00
2023-01-12T05:10:18.639Z,0.90
2023-01-12T05:12:45.728Z,0.80
2023-01-12T05:15:12.478Z,0.77
2023-01-12T05:17:39.220Z,1.10
2023-01-12T05:20:07.219Z,0.90
2023-01-12T05:22:33.984Z,2.57
2023-01-12T05:25:00.989Z,2.57
2023-01-12T05:27:27.750Z,0.90
2023-01-12T05:29:57.152Z,0.90
2023-01-12T05:32:23.973Z,1.00
2023-01-12T05:34:50.811Z,0.80
2023-01-12T05:37:17.529Z,0.77
2023-01-12T05:39:44.335Z,1.00
2023-01-12T05:42:31.662Z,0.70
2023-01-12T05:44:58.532Z,1.43
2023-01-12T05:47:25.464Z,2.40
2023-01-12T05:49:52.434Z,0.90
2023-01-12T05:52:19.168Z,1.13
2023-01-12T05:54:46.177Z,1.33
2023-01-12T05:57:12.923Z,0.63
2023-01-12T05:59:39.638Z,0.83
2023-01-12T06:02:08.525Z,0.77
2023-01-12T06:04:36.334Z,0.93
2023-01-12T06:07:03.190Z,1.00
2023-01-12T06:09:30.295Z,0.80
2023-01-12T06:12:16.266Z,0.93
2023-01-12T06:14:42.992Z,1.00
2023-01-12T06:17:09.733Z,1.30
2023-01-12T06:19:37.174Z,1.20
2023-01-12T06:22:04.367Z,1.40
2023-01-12T06:24:31.397Z,1.03
2023-01-12T06:26:58.657Z,1.43
2023-01-12T06:29:25.321Z,1.13
2023-01-12T06:31:52.799Z,1.30
2023-01-12T06:34:20.334Z,0.97
2023-01-12T06:36:47.818Z,1.03
2023-01-12T06:39:14.502Z,0.90
2023-01-12T06:41:59.572Z,1.40
2023-01-12T06:44:26.315Z,0.80
2023-01-12T06:46:53.103Z,1.30
2023-01-12T06:49:19.928Z,0.90
2023-01-12T06:51:51.685Z,1.00
2023-01-12T06:54:18.922Z,0.87
2023-01-12T06:56:45.888Z,0.87
2023-01-12T06:59:13.066Z,0.80
2023-01-12T07:01:40.874Z,1.37
2023-01-12T07:04:08.936Z,1.20
2023-01-12T07:06:36.482Z,1.17
2023-01-12T07:09:03.858Z,0.80
2023-01-12T07:11:30.960Z,0.90
2023-01-12T07:13:57.810Z,1.33
2023-01-12T07:16:24.744Z,0.80
2023-01-12T07:18:51.692Z,0.97
2023-01-12T07:21:19.781Z,0.80
2023-01-12T07:23:46.489Z,0.90
2023-01-12T07:26:13.505Z,0.90
2023-01-12T07:28:40.852Z,1.70
2023-01-12T07:31:09.368Z,1.00
2023-01-12T07:33:38.238Z,0.70
2023-01-12T07:36:05.523Z,1.10
2023-01-12T07:38:32.907Z,0.97
2023-01-12T07:41:01.464Z,0.97
2023-01-12T07:43:29.122Z,0.83
2023-01-12T07:45:58.109Z,1.00
2023-01-12T07:48:26.733Z,1.00
2023-01-12T07:50:54.884Z,0.97
2023-01-12T07:53:23.922Z,1.40
2023-01-12T07:55:50.717Z,0.80
2023-01-12T07:58:17.854Z,1.00
2023-01-12T08:00:44.622Z,0.93
2023-01-12T08:03:14.130Z,1.13
2023-01-12T08:05:41.493Z,1.10
2023-01-12T08:08:08.833Z,1.37
2023-01-12T08:10:35.965Z,1.33
2023-01-12T08:13:03.030Z,1.20
2023-01-12T08:15:35.658Z,1.20
2023-01-12T08:18:08.881Z,1.03
2023-01-12T08:20:37.557Z,1.60
2023-01-12T08:23:15.369Z,0.87
2023-01-12T08:25:45.626Z,1.37
2023-01-12T08:28:17.993Z,1.17
2023-01-12T08:30:48.015Z,1.10
2023-01-12T08:33:16.080Z,0.93
2023-01-12T08:35:46.370Z,1.50
2023-01-12T08:38:14.088Z,1.67
2023-01-12T08:40:59.297Z,1.10
2023-01-12T08:43:44.687Z,1.00
2023-01-12T08:46:11.649Z,1.07
2023-01-12T08:48:40.833Z,0.77
2023-01-12T08:51:09.231Z,0.80
2023-01-12T08:53:36.236Z,1.40
2023-01-12T08:56:03.444Z,0.87
2023-01-12T08:58:31.376Z,0.80
2023-01-12T09:01:08.160Z,0.60
2023-01-12T09:03:36.121Z,0.60
2023-01-12T09:06:18.484Z,0.93
2023-01-12T09:08:46.064Z,0.80
2023-01-12T09:11:14.719Z,0.77
2023-01-12T09:13:41.927Z,0.50
2023-01-12T09:16:13.545Z,0.83
2023-01-12T09:18:41.608Z,0.70
2023-01-12T09:21:11.351Z,0.60
2023-01-12T09:23:39.519Z,0.67
2023-01-12T09:26:09.577Z,0.90
2023-01-12T09:28:38.067Z,0.50
2023-01-12T09:31:11.418Z,0.60
2023-01-12T09:33:40.063Z,0.50
2023-01-12T09:36:08.979Z,0.60
2023-01-12T09:38:38.487Z,0.30
2023-01-12T09:41:43.855Z,0.67
2023-01-12T09:44:41.627Z,0.40
2023-01-12T09:47:27.232Z,0.67
2023-01-12T09:50:09.409Z,0.50
2023-01-12T09:53:02.792Z,0.70
2023-01-12T09:55:51.832Z,0.40
2023-01-12T09:58:39.378Z,0.70
2023-01-12T10:01:28.189Z,0.63
2023-01-12T10:03:59.355Z,0.50
2023-01-12T10:06:26.699Z,0.57
2023-01-12T10:09:13.847Z,0.43
2023-01-12T10:12:04.933Z,0.50
2023-01-12T10:14:56.537Z,0.50
2023-01-12T10:17:41.983Z,0.63
2023-01-12T10:20:28.636Z,0.60
2023-01-12T10:23:01.986Z,1.37
2023-01-12T10:26:03.983Z,0.60
2023-01-12T10:28:35.686Z,0.50
2023-01-12T10:31:04.123Z,0.43
2023-01-12T10:33:33.153Z,0.67
2023-01-12T10:36:29.704Z,0.57
2023-01-12T10:39:04.096Z,0.60
2023-01-12T10:41:35.524Z,1.63
2023-01-12T10:44:13.498Z,0.70
2023-01-12T10:46:40.557Z,0.43
2023-01-12T10:49:19.588Z,0.60
2023-01-12T10:51:55.348Z,0.50
2023-01-12T10:54:37.287Z,0.50
2023-01-12T10:57:22.480Z,0.40
2023-01-12T10:59:59.683Z,0.30
2023-01-12T11:02:43.651Z,0.70
2023-01-12T11:05:39.087Z,0.43
2023-01-12T11:08:28.343Z,0.43
2023-01-12T11:10:55.707Z,0.37
2023-01-12T11:13:37.641Z,0.40
2023-01-12T11:16:18.019Z,0.30
2023-01-12T11:19:19.926Z,0.40
2023-01-12T11:21:57.474Z,0.30
2023-01-12T11:24:45.208Z,0.70
2023-01-12T11:27:21.439Z,0.37
2023-01-12T11:30:04.137Z,0.40
2023-01-12T11:32:50.020Z,0.30
2023-01-12T11:35:58.605Z,0.50
2023-01-12T11:38:33.923Z,0.50
2023-01-12T11:41:01.657Z,0.57
2023-01-12T11:43:56.194Z,0.50
2023-01-12T11:46:35.984Z,0.40
2023-01-12T11:49:20.148Z,0.47
2023-01-12T11:51:56.638Z,0.40
2023-01-12T11:54:25.329Z,0.50
2023-01-12T11:57:12.303Z,0.60
2023-01-12T12:00:12.474Z,0.60
2023-01-12T12:02:46.245Z,0.70
2023-01-12T12:05:43.406Z,0.60
2023-01-12T12:08:22.215Z,0.40
2023-01-12T12:11:11.591Z,0.50
2023-01-12T12:13:57.500Z,0.43
2023-01-12T12:16:40.627Z,0.50
2023-01-12T12:19:25.751Z,0.40
2023-01-12T12:22:05.956Z,0.40
2023-01-12T12:25:02.863Z,0.30
2023-01-12T12:27:41.667Z,0.40
2023-01-12T12:30:28.662Z,0.30
2023-01-12T12:33:40.642Z,0.30
2023-01-12T12:36:26.372Z,0.50
2023-01-12T12:39:27.164Z,0.50
2023-01-12T12:42:25.159Z,0.40
2023-01-12T12:45:16.940Z,0.47
2023-01-12T12:47:56.208Z,0.50
2023-01-12T12:50:31.849Z,0.40
2023-01-12T12:53:05.802Z,0.40
2023-01-12T12:55:32.802Z,0.20
2023-01-12T12:58:29.804Z,0.50
2023-01-12T13:01:19.687Z,0.43
2023-01-12T13:03:50.860Z,0.53
2023-01-12T13:06:32.832Z,0.50
2023-01-12T13:09:02.391Z,0.50
2023-01-12T13:12:00.323Z,0.40
2023-01-12T13:14:30.254Z,0.30
2023-01-12T13:17:19.809Z,0.50
2023-01-12T13:20:08.248Z,0.47
2023-01-12T13:22:45.142Z,0.20
2023-01-12T13:25:22.225Z,0.40
2023-01-12T13:28:01.321Z,0.40
2023-01-12T13:30:31.343Z,0.43
2023-01-12T13:33:14.684Z,0.30
2023-01-12T13:35:44.674Z,0.30
2023-01-12T13:38:39.636Z,0.40
2023-01-12T13:41:38.299Z,1.50
2023-01-12T13:44:15.520Z,0.50
2023-01-12T13:46:51.430Z,0.40
2023-01-12T13:49:26.726Z,0.37
2023-01-12T13:52:00.601Z,0.40
2023-01-12T13:54:28.001Z,0.40
2023-01-12T13:57:18.330Z,0.50
2023-01-12T14:00:09.029Z,0.40
2023-01-12T14:02:41.946Z,0.30
2023-01-12T14:06:02.625Z,0.20
2023-01-12T14:08:52.365Z,0.30
2023-01-12T14:11:25.083Z,0.40
2023-01-12T14:14:46.030Z,0.70
2023-01-12T14:17:36.655Z,0.30
2023-01-12T14:20:13.085Z,0.40
2023-01-12T14:22:39.986Z,0.53
2023-01-12T14:25:22.294Z,0.60
2023-01-12T14:27:50.607Z,0.40
2023-01-12T14:30:17.966Z,0.33
2023-01-12T14:32:47.720Z,0.97
2023-01-12T14:35:22.779Z,0.50
2023-01-12T14:38:00.698Z,0.50
2023-01-12T14:40:33.201Z,0.60
2023-01-12T14:43:20.893Z,0.43
2023-01-12T14:46:18.637Z,0.77
2023-01-12T14:49:30.725Z,0.30
2023-01-12T14:52:17.467Z,0.70
2023-01-12T14:54:44.424Z,1.10
2023-01-12T14:57:28.056Z,0.60
2023-01-12T14:59:55.478Z,0.80
2023-01-12T15:02:37.067Z,0.40
2023-01-12T15:05:18.144Z,0.43
2023-01-12T15:07:58.225Z,0.50
2023-01-12T15:10:32.596Z,0.47
2023-01-12T15:13:27.806Z,0.53
2023-01-12T15:16:15.032Z,0.70
2023-01-12T15:19:04.861Z,0.40
2023-01-12T15:21:52.421Z,0.47
2023-01-12T15:24:49.044Z,0.60
2023-01-12T15:27:21.719Z,0.47
2023-01-12T15:29:49.006Z,0.40
2023-01-12T15:32:47.437Z,0.57
2023-01-12T15:35:24.030Z,0.30
2023-01-12T15:37:54.165Z,0.40
2023-01-12T15:40:22.632Z,0.40
2023-01-12T15:42:53.124Z,0.60
2023-01-12T15:45:28.172Z,0.67
2023-01-12T15:47:55.987Z,0.60
2023-01-12T15:50:23.575Z,0.70
2023-01-12T15:52:51.628Z,0.63
2023-01-12T15:55:21.766Z,0.50
2023-01-12T15:57:50.833Z,0.57
2023-01-12T16:00:20.908Z,0.87
2023-01-12T16:02:49.105Z,0.70
2023-01-12T16:05:23.928Z,0.60
2023-01-12T16:07:50.729Z,0.80
2023-01-12T16:10:18.688Z,0.50
2023-01-12T16:12:48.094Z,0.60
2023-01-12T16:15:21.963Z,0.30
2023-01-12T16:17:49.795Z,0.50
2023-01-12T16:20:18.849Z,0.90
2023-01-12T16:22:46.873Z,0.70
2023-01-12T16:25:14.351Z,21.67
2023-01-12T16:27:41.333Z,29.47
2023-01-12T16:30:12.783Z,4.83
2023-01-12T16:32:41.159Z,1.20
2023-01-12T16:35:08.486Z,0.53
2023-01-12T16:37:35.581Z,0.60
2023-01-12T16:40:02.483Z,0.63
2023-01-12T16:42:29.690Z,0.40
2023-01-12T16:44:56.452Z,0.53
2023-01-12T16:47:24.664Z,0.50
2023-01-12T16:49:52.302Z,0.40
2023-01-12T16:52:21.124Z,1.83
2023-01-12T16:54:48.141Z,1.90
2023-01-12T16:57:16.983Z,1.00
2023-01-12T16:59:44.839Z,1.77
2023-01-12T17:02:16.291Z,0.83
2023-01-12T17:04:44.948Z,1.97
2023-01-12T17:07:13.021Z,1.77
2023-01-12T17:09:40.681Z,5.77
2023-01-12T17:12:08.641Z,8.37
2023-01-12T17:14:35.995Z,15.57
2023-01-12T17:17:06.654Z,15.07
2023-01-12T17:19:35.943Z,5.40
2023-01-12T17:22:05.020Z,1.27
2023-01-12T17:24:34.073Z,1.30
2023-01-12T17:27:01.355Z,1.17
2023-01-12T17:29:29.421Z,1.67
2023-01-12T17:32:06.334Z,1.20
2023-01-12T17:34:35.946Z,1.00
2023-01-12T17:37:04.255Z,1.30
2023-01-12T17:39:31.535Z,0.90
2023-01-12T17:42:17.053Z,1.30
2023-01-12T17:44:44.384Z,1.13
2023-01-12T17:47:11.881Z,2.20
2023-01-12T17:49:39.185Z,3.33
2023-01-12T17:52:05.898Z,2.40
2023-01-12T17:54:32.707Z,2.20
2023-01-12T17:57:00.350Z,1.70
2023-01-12T17:59:27.264Z,1.80
2023-01-12T18:01:55.412Z,1.73
2023-01-12T18:04:22.205Z,1.80
2023-01-12T18:06:49.360Z,2.73
2023-01-12T18:09:16.962Z,1.60
2023-01-12T18:11:43.981Z,1.37
2023-01-12T18:14:12.062Z,1.20
2023-01-12T18:16:39.312Z,2.13
2023-01-12T18:19:09.202Z,2.23
2023-01-12T18:21:36.247Z,1.77
2023-01-12T18:24:03.541Z,1.60
2023-01-12T18:26:33.641Z,1.53
2023-01-12T18:29:01.553Z,1.57
2023-01-12T18:31:37.257Z,2.30
2023-01-12T18:34:06.105Z,1.80
2023-01-12T18:36:35.816Z,1.43
2023-01-12T18:39:05.552Z,2.00
2023-01-12T18:41:50.748Z,1.97
2023-01-12T18:44:17.627Z,1.80
2023-01-12T18:47:02.840Z,1.87
2023-01-12T18:49:33.243Z,1.50
2023-01-12T18:52:20.046Z,1.53
2023-01-12T18:54:48.360Z,1.60
2023-01-12T18:57:18.887Z,1.87
2023-01-12T18:59:47.176Z,2.10
2023-01-12T19:02:15.193Z,1.90
2023-01-12T19:04:42.888Z,2.00
2023-01-12T19:07:12.557Z,2.03
2023-01-12T19:09:39.801Z,1.70
2023-01-12T19:12:07.149Z,1.90
2023-01-12T19:14:52.581Z,1.90
2023-01-12T19:17:32.668Z,1.63
2023-01-12T19:20:06.164Z,2.23
2023-01-12T19:22:52.057Z,1.83
2023-01-12T19:25:39.992Z,1.60
2023-01-12T19:28:29.554Z,1.73
2023-01-12T19:31:02.986Z,1.67
2023-01-12T19:33:31.333Z,1.70
2023-01-12T19:35:58.787Z,1.60
2023-01-12T19:38:26.272Z,1.80
2023-01-12T19:40:54.544Z,1.63
2023-01-12T19:43:26.109Z,2.20
2023-01-12T19:46:01.428Z,2.07
2023-01-12T19:48:30.743Z,1.50
2023-01-12T19:51:10.305Z,1.90
2023-01-12T19:53:39.313Z,2.30
2023-01-12T19:56:31.443Z,2.73
2023-01-12T19:58:58.237Z,1.97
2023-01-12T20:01:25.772Z,2.63
2023-01-12T20:03:52.567Z,1.87
2023-01-12T20:06:19.309Z,1.90
2023-01-12T20:08:46.587Z,1.80
2023-01-12T20:11:13.974Z,2.10
2023-01-12T20:13:40.823Z,2.23
2023-01-12T20:16:09.698Z,2.20
2023-01-12T20:18:37.037Z,2.10
2023-01-12T20:21:08.563Z,2.03
2023-01-12T20:23:35.399Z,2.10
2023-01-12T20:26:06.450Z,2.50
2023-01-12T20:28:33.306Z,2.73
2023-01-12T20:31:00.280Z,2.50
2023-01-12T20:33:28.460Z,2.77
2023-01-12T20:35:55.677Z,2.93
2023-01-12T20:38:22.791Z,3.00
2023-01-12T20:40:50.009Z,2.80
2023-01-12T20:43:17.030Z,2.47
2023-01-12T20:45:44.444Z,2.63
2023-01-12T20:48:15.550Z,2.97
2023-01-12T20:50:46.825Z,3.80
2023-01-12T20:53:16.444Z,3.10
2023-01-12T20:55:44.600Z,2.87
2023-01-12T20:58:12.029Z,2.47
2023-01-12T21:00:38.855Z,2.70
2023-01-12T21:03:05.691Z,3.23
2023-01-12T21:05:34.798Z,2.80
2023-01-12T21:08:08.000Z,2.20
2023-01-12T21:10:36.600Z,2.87
2023-01-12T21:13:04.166Z,3.00
2023-01-12T21:15:32.350Z,2.83
2023-01-12T21:17:59.678Z,2.53
2023-01-12T21:20:26.599Z,2.80
2023-01-12T21:22:53.457Z,3.03
2023-01-12T21:25:20.329Z,2.50
2023-01-12T21:27:47.315Z,2.33
2023-01-12T21:30:14.663Z,3.03
2023-01-12T21:32:43.804Z,3.13
2023-01-12T21:35:10.636Z,2.73
2023-01-12T21:37:37.773Z,2.87
2023-01-12T21:40:04.914Z,3.10
2023-01-12T21:42:50.989Z,3.13
2023-01-12T21:45:18.980Z,3.00
2023-01-12T21:47:47.131Z,3.13
2023-01-12T21:50:13.995Z,3.20
2023-01-12T21:52:41.648Z,3.17
2023-01-12T21:55:13.934Z,2.90
2023-01-12T21:57:42.580Z,2.87
2023-01-12T22:00:10.548Z,3.13
2023-01-12T22:02:41.790Z,2.70
2023-01-12T22:05:09.991Z,2.90
2023-01-12T22:07:37.479Z,2.83
2023-01-12T22:10:24.823Z,2.73
2023-01-12T22:12:57.054Z,2.83
2023-01-12T22:15:24.904Z,2.93
2023-01-12T22:17:53.504Z,2.97
2023-01-12T22:20:20.991Z,3.30
2023-01-12T22:22:48.171Z,3.20
2023-01-12T22:25:16.587Z,3.00
2023-01-12T22:27:43.528Z,3.47
2023-01-12T22:30:14.121Z,3.27
2023-01-12T22:32:41.446Z,3.37
2023-01-12T22:35:09.122Z,3.93
2023-01-12T22:37:38.127Z,5.17
2023-01-12T22:40:07.392Z,5.57
2023-01-12T22:42:52.635Z,4.90
2023-01-12T22:45:19.531Z,5.50
2023-01-12T22:47:54.654Z,4.27
2023-01-12T22:50:22.672Z,4.33
2023-01-12T22:52:54.738Z,4.30
2023-01-12T22:55:23.493Z,4.50
2023-01-12T22:57:50.617Z,4.40
2023-01-12T23:00:19.761Z,3.90
2023-01-12T23:03:02.154Z,3.57
2023-01-12T23:05:36.066Z,3.20
2023-01-12T23:08:05.262Z,3.47
2023-01-12T23:10:32.589Z,3.47
2023-01-12T23:13:11.657Z,3.93
2023-01-12T23:15:39.705Z,3.57
2023-01-12T23:18:07.726Z,3.80
2023-01-12T23:20:36.200Z,3.40
2023-01-12T23:23:03.869Z,3.30
2023-01-12T23:25:34.682Z,3.13
2023-01-12T23:28:01.816Z,3.70
2023-01-12T23:30:30.789Z,3.37
2023-01-12T23:32:59.581Z,4.07
2023-01-12T23:35:27.656Z,4.07
2023-01-12T23:37:54.495Z,3.63
2023-01-12T23:40:21.595Z,3.70
2023-01-12T23:42:48.743Z,3.60
2023-01-12T23:45:15.850Z,3.90
2023-01-12T23:47:42.946Z,3.57
2023-01-12T23:50:12.082Z,3.87
2023-01-12T23:52:39.284Z,4.10
2023-01-12T23:55:07.048Z,3.90
2023-01-12T23:57:35.433Z,3.20
